Nearby METAR Reports

 

EGNR - Hawarden (aut), United Kingdom
Distance from station: ESE 33mi, 53km
Updated: 28/06/2022 19:50
Nearby showers, Mostly cloudy
Nearby showers, Mostly cloudy
 Wind from S
Wind: S 15 mph , 24 km/h
Temperature: 16°C
Dew Point: 12°C
Humidity: 77%
Barometer: 1011 hPa
Summary: Nearby Showers
Clouds: Mostly cloudy
Visibility: 6 miles , 10 km
Cloud details: Partly cloudy 579 m
Mostly cloudy 792 m
2022/06/28 18:50 EGNR 281850Z 17013KT 9999 VCSH SCT019 BKN026 16/12 Q1011
EGOV - Valley Raf, United Kingdom
Distance from station: W 33mi, 53km
Updated: 28/06/2022 19:20
Few Clouds
Few Clouds
 Wind from S
Wind: S 23 mph , 37 km/h
Temperature: 15°C
Dew Point: 13°C
Humidity: 88%
Barometer: 1007 hPa
Clouds: Few Clouds
Visibility: 6 miles , 10 km
Cloud details: Few Clouds 427 m
2022/06/28 18:20 EGOV 281820Z AUTO 18020KT 9999 FEW014/// 15/13 Q1007
 
EGGP - Liverpool Airpor, United Kingdom
Distance from station: E 37mi, 59km
Updated: 28/06/2022 19:50
Partly cloudy
Partly cloudy
 Wind from SSE
Wind: SSE 18 mph , 30 km/h
Temperature: 16°C
Dew Point: 12°C
Humidity: 77%
Barometer: 1010 hPa
Clouds: Partly cloudy
Visibility: 6 miles , 10 km
Cloud details: Partly cloudy 701 m
2022/06/28 18:50 EGGP 281850Z 16016KT 9999 SCT023 16/12 Q1010
EGNH - Blackpool Airpor, United Kingdom
Distance from station: NE 44mi, 72km
Updated: 28/06/2022 19:50
Light rain, Mostly cloudy
Light rain, Mostly cloudy
 Wind from S
Wind: S 17 mph , 28 km/h
Temperature: 15°C
Dew Point: 13°C
Humidity: 88%
Barometer: 1010 hPa
Summary: Light rain
Clouds: Mostly cloudy
Visibility: 6 miles , 10 km
Cloud details: Mostly cloudy 975 m
2022/06/28 18:50 EGNH 281850Z 17015KT 9999 -RA BKN032 15/13 Q1010
 
EGNO - Wharton, United Kingdom
Distance from station: NE 47mi, 76km
Updated: 28/06/2022 18:50
Light rain, Showers, Mostly cloudy
Light rain, Showers, Mostly cloudy
 Wind from SSE
Wind: SSE 13 mph , 20 km/h
Temperature: 14°C
Dew Point: 12°C
Humidity: 88%
Barometer: 1010 hPa
Summary: Light rain, Showers
Clouds: Mostly cloudy
Visibility: 6 miles , 9 km
Cloud details: Few Clouds 975 m
Mostly cloudy 1219 m
2022/06/28 17:50 EGNO 281750Z 16011KT 9000 -SHRA FEW032 BKN040 14/12 Q1010
EGOS - Shawbury Raf, United Kingdom
Distance from station: SE 56mi, 89km
Updated: 28/06/2022 19:50
Overcast
Overcast
 Wind from S
Wind: S 13 mph , 20 km/h
Temperature: 15°C
Dew Point: 11°C
Humidity: 77%
Barometer: 1011 hPa
Clouds: Overcast
Visibility: 6 miles , 10 km
Cloud details: Few Clouds 671 m
Partly cloudy 1372 m
Overcast 2743 m
2022/06/28 18:50 EGOS 281850Z 17011KT 9999 FEW022 SCT045 OVC090 15/11 Q1011 RMK BLU
 
EGCC - Manchester Intl, United Kingdom
Distance from station: E 61mi, 98km
Updated: 28/06/2022 19:50
Few Clouds
Few Clouds
 Wind from S
Wind: S 8 mph , 13 km/h
Temperature: 16°C
Dew Point: 11°C
Humidity: 72%
Barometer: 1011 hPa
Clouds: Few Clouds
Visibility: 6 miles , 10 km
Cloud details: Few Clouds 853 m
2022/06/28 18:50 EGCC 281850Z AUTO 17007KT 110V230 9999 FEW028 16/11 Q1011 TEMPO RA
EGNS - Isle Of Man/Rona, United Kingdom
Distance from station: NW 66mi, 107km
Updated: 28/06/2022 19:50
Few Clouds
Few Clouds
 Wind from S
Wind: S 20 mph , 31 km/h
Temperature: 14°C
Dew Point: 12°C
Humidity: 88%
Barometer: 1007 hPa
Clouds: Few Clouds
Visibility: 6 miles , 10 km
Cloud details: Few Clouds 366 m
2022/06/28 18:50 EGNS 281850Z 17017KT 9999 FEW012 14/12 Q1007 NOSIG
 
EGNM - Leeds And Bradfo, United Kingdom
Distance from station: ENE 95mi, 153km
Updated: 28/06/2022 19:50
Partly cloudy
Partly cloudy
 Wind from S
Wind: S 14 mph , 22 km/h
Temperature: 16°C
Dew Point: 9°C
Humidity: 63%
Barometer: 1011 hPa
Clouds: Partly cloudy
Visibility: 6 miles , 10 km
Cloud details: Few Clouds 853 m
Partly cloudy 1067 m
2022/06/28 18:50 EGNM 281850Z 17012KT 9999 FEW028 SCT035 16/09 Q1011
EGBB - Birmingham Airpo, United Kingdom
Distance from station: ESE 100mi, 161km
Updated: 28/06/2022 19:50
Mostly cloudy
Mostly cloudy
 Wind from S
Wind: S 14 mph , 22 km/h
Temperature: 17°C
Dew Point: 9°C
Humidity: 59%
Barometer: 1013 hPa
Clouds: Mostly cloudy
Visibility: 6 miles , 10 km
Cloud details: Mostly cloudy 1158 m
2022/06/28 18:50 EGBB 281850Z 18012KT 9999 BKN038 17/09 Q1013